Time;durP1;ratioP1;P1;durP2;ratioP2;P2;SDS_P1;SDS_P2;PMS_P1;PMS_P2;Temp;Humidity;BMP_temperature;BMP_pressure;BME280_temperature;BME280_humidity;BME280_pressure;Samples;Min_cycle;Max_cycle;Signal;HPM_P1;HPM_P2
2023/03/23 00:01:57;;;;;;;1.93;1.73;;;;;;;12.48;76.18;154564.16;5030494;28;20539;-85
2023/03/23 00:04:26;;;;;;;2.93;1.87;;;;;;;12.49;75.90;154566.75;5016164;28;20483;-85
2023/03/23 00:06:54;;;;;;;2.67;2.00;;;;;;;12.48;75.09;154564.16;5032661;28;20522;-85
2023/03/23 00:09:24;;;;;;;4.20;2.27;;;;;;;12.47;71.87;154562.84;5013030;28;20487;-85
2023/03/23 00:11:52;;;;;;;3.00;2.10;;;;;;;12.56;78.37;154584.91;5010091;28;20916;-85
2023/03/23 00:14:22;;;;;;;1.60;1.50;;;;;;;12.52;77.51;154574.53;5016718;28;20475;-86
2023/03/23 00:16:50;;;;;;;5.30;2.00;;;;;;;12.49;76.54;154568.06;5001353;28;20495;-85
2023/03/23 00:19:19;;;;;;;1.90;1.50;;;;;;;12.48;76.69;154564.16;5010395;28;20469;-85
2023/03/23 00:21:45;;;;;;;2.57;1.73;;;;;;;12.50;76.21;154570.63;4995349;28;20471;-85
2023/03/23 00:24:15;;;;;;;2.53;1.90;;;;;;;12.47;75.18;154562.84;5022093;28;20440;-85
2023/03/23 00:26:43;;;;;;;1.80;1.50;;;;;;;12.48;77.64;154564.16;5014295;28;20555;-85
2023/03/23 00:29:14;;;;;;;2.23;1.93;;;;;;;12.44;75.19;154553.78;5031067;28;20452;-85
2023/03/23 00:31:46;;;;;;;2.30;1.83;;;;;;;12.42;77.27;154549.88;5008869;28;20959;-85
2023/03/23 00:34:18;;;;;;;1.90;1.70;;;;;;;12.39;71.43;154540.84;5014662;28;20757;-86
2023/03/23 00:36:46;;;;;;;1.80;1.30;;;;;;;12.44;72.88;154553.78;5007986;28;20452;-86
2023/03/23 00:39:16;;;;;;;2.30;2.07;;;;;;;12.43;70.49;154551.19;5015655;28;20448;-85
2023/03/23 00:41:43;;;;;;;1.90;1.70;;;;;;;12.48;71.80;154564.16;5016556;28;20901;-85
2023/03/23 00:44:16;;;;;;;2.47;1.83;;;;;;;12.47;68.10;154561.59;4991952;28;20444;-86
2023/03/23 00:46:44;;;;;;;3.20;2.10;;;;;;;12.46;68.02;154560.28;5013821;28;20460;-86
2023/03/23 00:49:13;;;;;;;2.77;2.47;;;;;;;12.52;68.19;154574.53;5010843;28;20471;-85
2023/03/23 00:51:40;;;;;;;3.03;1.90;;;;;;;12.50;67.88;154569.31;5009996;28;20464;-85
2023/03/23 00:54:07;;;;;;;2.80;1.97;;;;;;;12.50;70.15;154570.63;5014606;28;20488;-86
2023/03/23 00:56:35;;;;;;;2.97;1.90;;;;;;;12.47;66.82;154561.59;5005713;28;20480;-85
2023/03/23 00:59:02;;;;;;;2.93;1.87;;;;;;;12.45;66.94;154556.34;5010619;28;20475;-86
2023/03/23 01:01:29;;;;;;;3.50;1.87;;;;;;;12.46;66.93;154558.97;5016079;28;20460;-85
2023/03/23 01:04:00;;;;;;;3.03;1.90;;;;;;;12.45;68.64;154557.66;4990100;28;20584;-85
2023/03/23 01:06:28;;;;;;;2.70;1.77;;;;;;;12.45;69.18;154557.66;4991249;28;20857;-86
2023/03/23 01:08:56;;;;;;;2.83;2.00;;;;;;;12.46;71.65;154558.97;5016074;28;20490;-85
2023/03/23 01:11:25;;;;;;;2.70;2.03;;;;;;;12.43;74.19;154552.50;5015452;28;20453;-85
2023/03/23 01:13:53;;;;;;;2.40;1.87;;;;;;;12.36;70.87;154534.34;5017646;28;20507;-85
2023/03/23 01:16:21;;;;;;;4.17;2.07;;;;;;;12.38;71.84;154538.22;5011682;28;20494;-86
2023/03/23 01:18:47;;;;;;;2.07;1.87;;;;;;;12.36;70.40;154533.03;4999287;28;20443;-86
2023/03/23 01:21:16;;;;;;;3.63;2.30;;;;;;;12.36;70.34;154534.34;4997699;28;20455;-85
2023/03/23 01:23:44;;;;;;;2.47;2.27;;;;;;;12.38;76.06;154538.22;5009906;28;20851;-85
2023/03/23 01:26:13;;;;;;;3.90;2.33;;;;;;;12.34;78.62;154527.88;5025111;28;20453;-85
2023/03/23 01:28:40;;;;;;;3.67;2.27;;;;;;;12.27;75.58;154509.69;5010105;28;20546;-86
2023/03/23 01:31:11;;;;;;;4.50;2.17;;;;;;;12.26;75.06;154507.13;5008339;28;20544;-85
2023/03/23 01:33:39;;;;;;;2.20;2.00;;;;;;;12.23;71.79;154501.91;4995017;28;20472;-85
2023/03/23 01:36:08;;;;;;;3.90;1.90;;;;;;;12.27;71.35;154509.69;4991404;28;20479;-85
2023/03/23 01:38:35;;;;;;;2.90;2.47;;;;;;;12.29;70.26;154514.84;4995625;28;20539;-85
2023/03/23 01:41:04;;;;;;;2.50;2.00;;;;;;;12.29;72.65;154516.16;5009217;28;20551;-85
2023/03/23 01:43:31;;;;;;;2.20;1.90;;;;;;;12.30;72.31;154518.78;5011668;28;20462;-86
2023/03/23 01:45:58;;;;;;;2.43;2.07;;;;;;;12.28;70.04;154512.31;4996595;28;20452;-85
2023/03/23 01:48:28;;;;;;;2.60;2.37;;;;;;;12.26;69.23;154508.38;5015848;28;20532;-85
2023/03/23 01:50:57;;;;;;;3.53;2.20;;;;;;;12.28;72.17;154512.31;5007759;28;20670;-85
2023/03/23 01:53:27;;;;;;;2.90;2.40;;;;;;;12.27;75.80;154511.00;4992629;28;20451;-86
2023/03/23 01:55:55;;;;;;;4.80;2.10;;;;;;;12.26;77.56;154507.13;5019514;28;20574;-85
2023/03/23 01:58:27;;;;;;;2.43;2.23;;;;;;;12.27;79.37;154511.00;5011485;28;20521;-85
2023/03/23 02:00:55;;;;;;;2.23;2.03;;;;;;;12.24;79.87;154503.19;4992021;28;20830;-85
2023/03/23 02:03:23;;;;;;;2.50;1.90;;;;;;;12.21;77.35;154495.41;4993772;28;20459;-85
2023/03/23 02:05:52;;;;;;;2.03;1.83;;;;;;;12.19;78.32;154491.56;5005214;28;20511;-85
2023/03/23 02:08:29;;;;;;;1.87;1.63;;;;;;;12.14;76.88;154477.28;4993921;28;20472;-85
2023/03/23 02:10:56;;;;;;;3.67;2.10;;;;;;;12.14;80.55;154478.59;4994860;28;20502;-85
2023/03/23 02:13:23;;;;;;;2.60;1.80;;;;;;;12.11;79.40;154469.50;4994727;28;20456;-86
2023/03/23 02:15:57;;;;;;;2.50;2.10;;;;;;;12.04;77.09;154452.69;4994791;28;20511;-86
2023/03/23 02:18:37;;;;;;;3.03;2.10;;;;;;;12.08;73.87;154461.72;5006958;28;20451;-86
2023/03/23 02:21:37;;;;;;;5.17;2.17;;;;;;;12.11;74.73;154470.81;5021850;28;20446;-85
2023/03/23 02:24:29;;;;;;;2.53;1.90;;;;;;;12.15;74.55;154481.16;4997610;28;20467;-86
2023/03/23 02:26:58;;;;;;;2.70;2.10;;;;;;;12.14;72.04;154477.28;5006216;28;20448;-85
2023/03/23 02:29:48;;;;;;;2.20;1.80;;;;;;;12.18;74.37;154488.94;5008862;28;21863;-85
2023/03/23 02:32:27;;;;;;;2.67;2.23;;;;;;;12.26;70.35;154508.38;5028271;28;20489;-85
2023/03/23 02:34:58;;;;;;;2.40;1.97;;;;;;;12.32;73.25;154522.66;5011987;28;20469;-85
2023/03/23 02:37:30;;;;;;;2.93;2.73;;;;;;;12.37;77.03;154535.59;5027961;28;21032;-85
2023/03/23 02:39:59;;;;;;;2.70;2.17;;;;;;;12.32;75.12;154523.94;4993823;28;21015;-85
2023/03/23 02:42:28;;;;;;;2.60;2.00;;;;;;;12.33;72.02;154526.56;5008313;28;20495;-85
2023/03/23 02:44:55;;;;;;;4.80;2.20;;;;;;;12.34;71.29;154527.88;4995291;28;21028;-85
2023/03/23 02:47:24;;;;;;;2.20;1.73;;;;;;;12.40;68.96;154544.69;5023381;28;20452;-85
2023/03/23 02:49:56;;;;;;;2.03;1.67;;;;;;;12.43;68.83;154552.50;4998540;28;20868;-85
2023/03/23 02:52:25;;;;;;;2.30;2.10;;;;;;;12.48;71.01;154564.16;5003947;28;20527;-85
2023/03/23 02:54:54;;;;;;;2.70;1.73;;;;;;;12.43;75.17;154551.19;5001242;28;20457;-85
2023/03/23 02:57:21;;;;;;;2.70;2.00;;;;;;;12.37;75.76;154536.91;5017107;28;20472;-85
2023/03/23 02:59:48;;;;;;;2.03;1.83;;;;;;;12.34;76.78;154527.88;5010657;28;20978;-85
2023/03/23 03:02:18;;;;;;;2.67;2.10;;;;;;;12.30;76.06;154517.47;5011395;28;20456;-85
2023/03/23 03:04:49;;;;;;;3.03;1.80;;;;;;;12.26;73.50;154507.13;5005104;28;20436;-85
2023/03/23 03:07:35;;;;;;;2.20;1.67;;;;;;;12.26;72.95;154507.13;5010020;28;20457;-85
2023/03/23 03:10:05;;;;;;;2.50;2.03;;;;;;;12.25;71.77;154505.81;5016361;28;20436;-86
2023/03/23 03:12:37;;;;;;;2.43;1.90;;;;;;;12.26;70.66;154507.13;5003914;28;20943;-85
2023/03/23 03:15:11;;;;;;;2.23;1.97;;;;;;;12.33;73.84;154525.25;5007947;28;20478;-85
2023/03/23 03:17:43;;;;;;;2.60;2.00;;;;;;;12.31;75.38;154520.09;5006903;28;20488;-85
2023/03/23 03:20:13;;;;;;;2.97;1.83;;;;;;;12.26;71.53;154507.13;4999808;28;20466;-85
2023/03/23 03:22:42;;;;;;;2.00;1.70;;;;;;;12.26;71.47;154507.13;5007459;28;20459;-85
2023/03/23 03:25:12;;;;;;;2.10;1.90;;;;;;;12.28;74.59;154512.31;4988302;28;20502;-85
2023/03/23 03:27:40;;;;;;;2.27;1.93;;;;;;;12.25;74.48;154505.81;4993224;28;20443;-85
2023/03/23 03:30:16;;;;;;;2.40;2.10;;;;;;;12.25;76.31;154505.81;5002430;28;20451;-86
2023/03/23 03:32:48;;;;;;;1.93;1.70;;;;;;;12.22;76.09;154498.03;4997953;28;20504;-85
2023/03/23 03:35:16;;;;;;;2.50;1.93;;;;;;;12.21;74.45;154495.41;4975393;28;20468;-85
2023/03/23 03:37:44;;;;;;;3.80;2.07;;;;;;;12.22;77.69;154498.03;5003650;28;20535;-85
2023/03/23 03:40:14;;;;;;;2.40;1.83;;;;;;;12.17;75.07;154485.06;4991448;28;20456;-85
2023/03/23 03:42:43;;;;;;;5.20;1.87;;;;;;;12.16;74.98;154482.47;4974706;28;21084;-85
2023/03/23 03:45:11;;;;;;;3.13;1.83;;;;;;;12.18;75.69;154487.63;4999064;28;20481;-86
2023/03/23 03:47:38;;;;;;;2.30;1.80;;;;;;;12.17;73.17;154486.38;4990758;28;21190;-85
2023/03/23 03:50:06;;;;;;;3.67;1.73;;;;;;;12.20;73.98;154494.13;4977948;28;20909;-85
2023/03/23 03:52:34;;;;;;;4.50;2.20;;;;;;;12.25;76.91;154504.50;5006790;28;20488;-85
2023/03/23 03:55:02;;;;;;;2.10;1.70;;;;;;;12.25;77.02;154504.50;4992165;28;20994;-85
2023/03/23 03:57:30;;;;;;;2.20;1.90;;;;;;;12.25;75.72;154504.50;4982278;28;20453;-85
2023/03/23 04:00:00;;;;;;;1.67;1.50;;;;;;;12.28;76.90;154512.31;5009177;28;20480;-86
2023/03/23 04:02:51;;;;;;;2.20;2.00;;;;;;;12.34;74.30;154527.88;4991769;28;20464;-86
2023/03/23 04:05:23;;;;;;;2.33;1.80;;;;;;;12.40;76.52;154543.41;4969425;28;20473;-86
2023/03/23 04:07:51;;;;;;;2.13;1.93;;;;;;;12.38;76.79;154538.22;4981990;28;20448;-86
2023/03/23 04:10:22;;;;;;;3.73;1.87;;;;;;;12.39;77.46;154540.84;4986933;28;20450;-85
2023/03/23 04:12:53;;;;;;;2.90;2.00;;;;;;;12.39;77.67;154542.09;4981859;28;20985;-86
2023/03/23 04:15:39;;;;;;;1.87;1.70;;;;;;;12.41;79.16;154546.00;5006280;28;20554;-85
2023/03/23 04:18:06;;;;;;;2.20;1.70;;;;;;;12.39;79.51;154542.09;5010685;28;20851;-86
2023/03/23 04:20:34;;;;;;;2.50;2.10;;;;;;;12.37;80.30;154535.59;4978423;28;20453;-85
2023/03/23 04:23:01;;;;;;;2.70;2.00;;;;;;;12.36;79.53;154533.03;4992356;28;20925;-86
2023/03/23 04:25:32;;;;;;;2.30;2.10;;;;;;;12.40;77.87;154543.41;4973436;28;20459;-86
2023/03/23 04:28:00;;;;;;;5.03;2.13;;;;;;;12.42;79.47;154548.56;4974618;28;20775;-86
2023/03/23 04:30:31;;;;;;;2.17;1.67;;;;;;;12.39;78.10;154542.09;4992190;28;20450;-86
2023/03/23 04:33:04;;;;;;;2.23;1.70;;;;;;;12.39;80.24;154542.09;4980160;28;20492;-86
2023/03/23 04:35:31;;;;;;;1.90;1.70;;;;;;;12.37;76.67;154535.59;4986030;28;20486;-86
2023/03/23 04:38:25;;;;;;;2.40;1.93;;;;;;;12.43;76.86;154551.19;5002857;28;20456;-85
2023/03/23 04:41:01;;;;;;;2.03;1.83;;;;;;;12.47;81.38;154561.59;4980802;28;20460;-86
2023/03/23 04:43:56;;;;;;;1.90;1.57;;;;;;;12.36;76.86;154533.03;4993660;28;20457;-86
2023/03/23 04:46:28;;;;;;;2.50;1.63;;;;;;;12.43;78.94;154551.19;4992717;28;20461;-85
2023/03/23 04:48:58;;;;;;;2.23;1.70;;;;;;;12.42;79.88;154549.88;4993573;28;20493;-86
2023/03/23 04:51:31;;;;;;;1.83;1.73;;;;;;;12.41;76.07;154547.31;4977788;28;20452;-86
2023/03/23 04:54:02;;;;;;;2.30;1.77;;;;;;;12.45;76.64;154557.66;4989311;28;20442;-86
2023/03/23 04:56:33;;;;;;;2.10;1.90;;;;;;;12.49;81.40;154566.75;4971611;28;20560;-86
2023/03/23 04:59:06;;;;;;;2.37;1.77;;;;;;;12.45;82.16;154556.34;4975684;28;20449;-86
2023/03/23 05:01:45;;;;;;;2.03;1.80;;;;;;;12.42;83.00;154548.56;4978037;28;20464;-86
2023/03/23 05:04:22;;;;;;;3.40;1.90;;;;;;;12.37;80.39;154535.59;4987166;28;20454;-86
2023/03/23 05:07:09;;;;;;;2.30;1.70;;;;;;;12.37;80.32;154536.91;5003979;28;20459;-86
2023/03/23 05:09:42;;;;;;;2.60;2.20;;;;;;;12.38;82.44;154538.22;5000557;28;20466;-86
2023/03/23 05:12:11;;;;;;;2.63;1.80;;;;;;;12.41;82.03;154547.31;4978165;28;20547;-86
2023/03/23 05:14:50;;;;;;;2.33;1.90;;;;;;;12.43;83.34;154552.50;4976744;28;20484;-86
2023/03/23 05:17:20;;;;;;;2.53;2.17;;;;;;;12.43;83.52;154551.19;4982197;28;20462;-86
2023/03/23 05:19:50;;;;;;;2.07;1.80;;;;;;;12.38;83.67;154538.22;4997989;28;20940;-86
2023/03/23 05:22:39;;;;;;;2.30;1.70;;;;;;;12.33;83.09;154525.25;5001142;28;20937;-86
2023/03/23 05:25:09;;;;;;;2.20;1.70;;;;;;;12.32;78.65;154522.66;4993195;28;20453;-86
2023/03/23 05:27:42;;;;;;;2.80;1.80;;;;;;;12.38;80.37;154538.22;4985987;28;20438;-86
2023/03/23 05:30:20;;;;;;;1.90;1.47;;;;;;;12.42;83.05;154548.56;4990679;28;20527;-86
2023/03/23 05:32:50;;;;;;;1.90;1.70;;;;;;;12.40;83.34;154543.41;4986178;28;20476;-86
2023/03/23 05:35:36;;;;;;;2.67;1.90;;;;;;;12.38;79.90;154538.22;4992281;28;20491;-86
2023/03/23 05:38:04;;;;;;;2.10;1.63;;;;;;;12.38;82.09;154538.22;4996215;28;20707;-86
2023/03/23 05:40:31;;;;;;;2.30;1.73;;;;;;;12.40;82.83;154543.41;4991798;28;20864;-86
2023/03/23 05:43:20;;;;;;;2.10;1.90;;;;;;;12.38;82.16;154538.22;5028673;28;20534;-86
2023/03/23 05:45:57;;;;;;;1.87;1.47;;;;;;;12.39;81.36;154542.09;4984470;28;20563;-86
2023/03/23 05:48:24;;;;;;;2.10;1.83;;;;;;;12.40;81.15;154543.41;5008235;28;20464;-86
2023/03/23 05:50:51;;;;;;;2.53;1.93;;;;;;;12.46;84.92;154560.28;4986874;28;20464;-86
2023/03/23 05:53:21;;;;;;;2.10;1.87;;;;;;;12.39;80.96;154540.84;5000707;28;20483;-86
2023/03/23 05:55:48;;;;;;;3.67;2.20;;;;;;;12.45;84.33;154556.34;4995256;28;20457;-86
2023/03/23 05:58:24;;;;;;;2.10;1.43;;;;;;;12.40;79.09;154544.69;4999839;28;20453;-86
2023/03/23 06:00:51;;;;;;;2.13;1.70;;;;;;;12.42;80.09;154549.88;4988657;28;20453;-86
2023/03/23 06:03:23;;;;;;;2.30;2.10;;;;;;;12.44;81.24;154553.78;4996273;28;20994;-86
2023/03/23 06:06:00;;;;;;;1.83;1.63;;;;;;;12.50;86.64;154570.63;4993193;28;20475;-86
2023/03/23 06:08:36;;;;;;;2.87;1.97;;;;;;;12.42;81.97;154548.56;5008681;28;20454;-86
2023/03/23 06:11:03;;;;;;;2.63;1.73;;;;;;;12.43;78.96;154551.19;4996884;28;20460;-86
2023/03/23 06:13:35;;;;;;;2.07;1.87;;;;;;;12.49;81.63;154566.75;4992100;28;20452;-85
2023/03/23 06:16:08;;;;;;;2.87;1.97;;;;;;;12.50;82.24;154569.31;5004909;28;20563;-86
2023/03/23 06:18:49;;;;;;;2.30;1.60;;;;;;;12.56;85.46;154584.91;5014559;28;20842;-86
2023/03/23 06:21:34;;;;;;;2.43;2.23;;;;;;;12.57;86.67;154587.50;5010268;28;20462;-78
2023/03/23 06:24:21;;;;;;;2.07;1.77;;;;;;;12.53;85.39;154577.09;5008120;28;20464;-77
2023/03/23 06:26:49;;;;;;;3.33;2.20;;;;;;;12.57;88.15;154588.81;5016988;28;20456;-78
2023/03/23 06:29:21;;;;;;;2.37;1.97;;;;;;;12.46;80.23;154560.28;4991839;28;20452;-78
2023/03/23 06:31:54;;;;;;;2.03;1.73;;;;;;;12.50;83.27;154570.63;5009572;28;20483;-77
2023/03/23 06:34:21;;;;;;;3.60;2.30;;;;;;;12.54;84.48;154579.72;5016644;28;20452;-77
2023/03/23 06:37:17;;;;;;;2.27;1.70;;;;;;;12.55;83.89;154582.34;5006485;28;20472;-78
2023/03/23 06:40:07;;;;;;;2.90;2.47;;;;;;;12.59;84.54;154592.69;5026885;28;20459;-77
2023/03/23 06:42:42;;;;;;;2.30;2.10;;;;;;;12.60;85.80;154596.56;5006914;28;20444;-78
2023/03/23 06:45:28;;;;;;;3.50;2.97;;;;;;;12.56;84.23;154584.91;5000990;28;21243;-77
2023/03/23 06:48:14;;;;;;;5.17;2.30;;;;;;;12.61;85.70;154597.84;4998746;28;20542;-78
2023/03/23 06:50:43;;;;;;;4.33;2.57;;;;;;;12.55;81.50;154582.34;5005177;28;20472;-77
2023/03/23 06:53:10;;;;;;;2.80;2.27;;;;;;;12.57;79.94;154587.50;4991720;28;20464;-78
2023/03/23 06:55:37;;;;;;;3.13;2.40;;;;;;;12.61;80.52;154599.16;5009037;28;20448;-78
2023/03/23 06:58:05;;;;;;;3.47;2.10;;;;;;;12.67;84.20;154613.44;4991861;28;20487;-78
2023/03/23 07:00:34;;;;;;;3.00;2.60;;;;;;;12.70;82.57;154621.22;4992175;28;20460;-78
2023/03/23 07:03:01;;;;;;;3.27;2.40;;;;;;;12.77;83.90;154639.38;5009041;28;20437;-78
2023/03/23 07:05:29;;;;;;;2.43;2.10;;;;;;;12.79;82.38;154645.84;5007131;28;20585;-78
2023/03/23 07:07:56;;;;;;;2.67;2.17;;;;;;;12.86;82.01;154661.44;5004049;28;20484;-78
2023/03/23 07:10:35;;;;;;;4.10;2.90;;;;;;;12.91;83.61;154675.69;5008939;28;20456;-78
2023/03/23 07:13:04;;;;;;;5.43;2.10;;;;;;;12.89;78.68;154670.53;5007853;28;20535;-78
2023/03/23 07:15:41;;;;;;;4.90;2.40;;;;;;;12.97;76.96;154691.28;5020349;28;20513;-78
2023/03/23 07:18:11;;;;;;;3.50;2.13;;;;;;;13.04;79.46;154709.44;5003421;28;20480;-78
2023/03/23 07:20:43;;;;;;;3.50;2.30;;;;;;;13.08;79.46;154718.56;5005757;28;20464;-78
2023/03/23 07:23:10;;;;;;;3.40;2.10;;;;;;;13.11;81.97;154727.63;4991543;28;20502;-78
2023/03/23 07:25:44;;;;;;;3.70;2.20;;;;;;;13.07;83.99;154715.97;5025582;28;20466;-78
2023/03/23 07:28:16;;;;;;;2.30;2.10;;;;;;;13.06;78.32;154714.59;5008095;28;20531;-78
2023/03/23 07:30:45;;;;;;;3.50;2.80;;;;;;;13.12;80.57;154730.22;5017338;28;20480;-78
2023/03/23 07:33:12;;;;;;;2.93;1.93;;;;;;;13.10;77.04;154725.06;5004568;28;20476;-78
2023/03/23 07:35:39;;;;;;;3.33;2.47;;;;;;;13.11;78.87;154727.63;4992697;28;20460;-78
2023/03/23 07:38:13;;;;;;;2.70;1.80;;;;;;;13.12;77.06;154728.94;5006387;28;20829;-78
2023/03/23 07:40:42;;;;;;;2.80;2.30;;;;;;;13.10;78.36;154725.06;5009935;28;20448;-78
2023/03/23 07:43:14;;;;;;;2.70;2.20;;;;;;;13.14;79.26;154735.41;5004161;28;20457;-78
2023/03/23 07:46:03;;;;;;;2.83;2.00;;;;;;;13.16;76.53;154740.59;5002322;28;20459;-77
2023/03/23 07:48:59;;;;;;;2.83;2.03;;;;;;;13.18;77.93;154744.50;5008967;28;20448;-79
2023/03/23 07:51:34;;;;;;;4.53;2.10;;;;;;;13.18;77.31;154745.81;5017356;28;20877;-78
2023/03/23 07:54:02;;;;;;;2.60;2.03;;;;;;;13.26;80.92;154766.53;5023640;28;21005;-78
2023/03/23 07:56:51;;;;;;;2.23;1.93;;;;;;;13.27;85.22;154769.13;5004559;28;20479;-78
2023/03/23 07:59:23;;;;;;;3.40;2.37;;;;;;;13.24;76.47;154760.03;5004133;28;20440;-78
2023/03/23 08:01:52;;;;;;;4.40;2.57;;;;;;;13.35;76.50;154789.91;5005595;28;20484;-78
2023/03/23 08:04:37;;;;;;;2.77;2.17;;;;;;;13.47;74.52;154818.47;5026267;28;20979;-78
2023/03/23 08:07:18;;;;;;;3.80;2.13;;;;;;;13.56;80.77;154843.09;5086954;22;21517;-86
2023/03/23 08:10:05;;;;;;;3.97;3.10;;;;;;;13.56;77.99;154841.78;5092066;28;20514;-86
2023/03/23 08:13:01;;;;;;;3.07;2.67;;;;;;;13.64;75.93;154862.56;5081777;28;20942;-86
2023/03/23 08:15:46;;;;;;;3.20;2.30;;;;;;;13.71;74.71;154880.78;5087929;28;20502;-86
2023/03/23 08:18:34;;;;;;;2.70;2.17;;;;;;;13.74;74.10;154889.81;5085008;28;20512;-86
2023/03/23 08:21:13;;;;;;;3.13;2.80;;;;;;;13.78;76.95;154898.91;5091880;28;20447;-86
2023/03/23 08:23:59;;;;;;;3.10;2.57;;;;;;;13.81;80.07;154908.03;5104875;28;20508;-86
2023/03/23 08:26:39;;;;;;;3.57;2.47;;;;;;;13.84;75.98;154914.50;5069065;28;20579;-86
2023/03/23 08:29:25;;;;;;;4.30;2.13;;;;;;;13.93;75.80;154937.84;5093346;28;20550;-85
2023/03/23 08:32:11;;;;;;;3.00;2.47;;;;;;;14.00;76.26;154956.06;5091155;28;20847;-85
2023/03/23 08:35:15;;;;;;;2.70;2.10;;;;;;;14.10;77.88;154982.03;5025619;28;20439;-85
2023/03/23 08:38:01;;;;;;;2.63;2.23;;;;;;;14.16;77.56;154997.59;5094183;28;20477;-85
2023/03/23 08:41:05;;;;;;;3.17;2.60;;;;;;;14.18;76.33;155001.50;5077023;28;20448;-85
2023/03/23 08:43:52;;;;;;;2.50;2.03;;;;;;;14.20;78.62;155006.66;5065429;28;20590;-77
2023/03/23 08:46:25;;;;;;;2.50;2.20;;;;;;;14.25;76.80;155019.66;5108948;28;20441;-77
2023/03/23 08:49:21;;;;;;;7.70;2.93;;;;;;;14.28;81.45;155028.75;5093367;28;20448;-77
2023/03/23 08:52:13;;;;;;;2.63;2.20;;;;;;;14.22;77.12;155013.16;5088024;28;20977;-77
2023/03/23 08:55:08;;;;;;;4.60;2.57;;;;;;;14.31;78.22;155035.25;5062695;28;20437;-77
2023/03/23 08:58:13;;;;;;;3.40;2.60;;;;;;;14.30;78.96;155033.94;5061452;28;20465;-77
2023/03/23 09:01:04;;;;;;;3.40;2.87;;;;;;;14.32;81.92;155039.16;5093046;28;20451;-77
2023/03/23 09:03:54;;;;;;;2.40;2.13;;;;;;;14.32;79.52;155039.16;5107589;28;20898;-77
2023/03/23 09:06:44;;;;;;;3.17;2.47;;;;;;;14.31;80.40;155035.25;5089525;28;20448;-77
2023/03/23 09:09:12;;;;;;;6.17;2.80;;;;;;;14.33;79.84;155040.47;5090261;28;20510;-77
2023/03/23 09:11:40;;;;;;;2.97;2.43;;;;;;;14.38;78.13;155054.75;5061166;28;20439;-77
2023/03/23 09:14:08;;;;;;;3.23;2.30;;;;;;;14.45;78.44;155072.97;5070415;28;20482;-77
2023/03/23 09:16:35;;;;;;;6.70;2.43;;;;;;;14.53;82.13;155093.72;5071281;28;20868;-77
2023/03/23 09:19:02;;;;;;;5.30;2.50;;;;;;;14.59;83.03;155109.31;5070551;28;21007;-77
2023/03/23 09:21:29;;;;;;;3.17;2.50;;;;;;;14.70;78.56;155135.28;5070794;28;20955;-77
2023/03/23 09:23:58;;;;;;;2.93;2.73;;;;;;;14.80;77.10;155161.31;5061617;28;20840;-77
2023/03/23 09:26:26;;;;;;;2.57;2.00;;;;;;;14.89;75.94;155184.66;5063718;28;21026;-77
2023/03/23 09:28:53;;;;;;;2.27;1.87;;;;;;;14.97;78.95;155205.44;5068905;28;20483;-77
2023/03/23 09:31:22;;;;;;;3.23;2.00;;;;;;;14.97;75.35;155205.44;5067969;28;20493;-77
2023/03/23 09:33:51;;;;;;;2.00;1.80;;;;;;;15.05;75.67;155227.53;5070020;28;20478;-77
2023/03/23 09:36:18;;;;;;;2.43;2.23;;;;;;;15.11;79.05;155241.84;5052771;28;20839;-77
2023/03/23 09:38:45;;;;;;;2.50;2.00;;;;;;;15.08;78.10;155234.03;5070869;28;20506;-77
2023/03/23 09:41:20;;;;;;;2.97;2.03;;;;;;;15.11;80.43;155243.16;5071356;28;20456;-77
2023/03/23 09:43:56;;;;;;;2.80;2.13;;;;;;;15.11;76.44;155243.16;5069232;28;20500;-78
2023/03/23 09:46:43;;;;;;;2.10;1.80;;;;;;;15.12;80.21;155245.72;5071164;28;20488;-77
2023/03/23 09:49:14;;;;;;;3.07;2.23;;;;;;;15.05;74.40;155226.22;5070352;28;20950;-77
2023/03/23 09:51:45;;;;;;;2.27;1.70;;;;;;;15.10;74.59;155239.22;5037207;28;20438;-77
2023/03/23 09:54:16;;;;;;;2.50;2.27;;;;;;;15.07;77.54;155231.41;5070066;28;20850;-77
2023/03/23 09:56:42;;;;;;;2.40;1.80;;;;;;;14.99;75.42;155210.63;5087288;28;20943;-77
2023/03/23 09:59:15;;;;;;;3.20;1.63;;;;;;;15.02;76.40;155218.44;5067757;28;20467;-77
2023/03/23 10:01:46;;;;;;;2.50;1.93;;;;;;;15.02;79.41;155219.75;5067921;28;20448;-77
2023/03/23 10:04:19;;;;;;;2.57;1.73;;;;;;;15.09;76.85;155237.91;5068856;28;20451;-77
2023/03/23 10:06:48;;;;;;;2.37;1.93;;;;;;;15.07;75.66;155231.41;5068747;28;20447;-77
2023/03/23 10:09:17;;;;;;;3.30;1.80;;;;;;;15.06;76.48;155228.84;5069420;28;21017;-77
2023/03/23 10:11:51;;;;;;;2.63;2.23;;;;;;;15.13;73.59;155247.03;5085091;28;20444;-77
2023/03/23 10:14:28;;;;;;;2.57;2.20;;;;;;;15.19;76.08;155262.63;5067637;28;20460;-77
2023/03/23 10:17:01;;;;;;;2.80;1.87;;;;;;;15.27;78.80;155283.44;5060658;28;20451;-77
2023/03/23 10:19:31;;;;;;;2.60;2.40;;;;;;;15.27;77.00;155283.44;5069830;28;20487;-77
2023/03/23 10:22:03;;;;;;;3.17;2.60;;;;;;;15.29;74.99;155287.31;5083928;28;20450;-77
2023/03/23 10:24:36;;;;;;;2.80;2.30;;;;;;;15.42;75.26;155322.41;5054307;28;20476;-77
2023/03/23 10:27:11;;;;;;;2.37;1.90;;;;;;;15.58;78.03;155362.75;5060623;28;20437;-78
2023/03/23 10:29:43;;;;;;;2.20;1.90;;;;;;;15.63;77.63;155377.03;5077039;28;20829;-76
2023/03/23 10:32:14;;;;;;;4.13;2.27;;;;;;;15.67;72.95;155386.16;5089987;28;20485;-77
2023/03/23 10:34:44;;;;;;;2.77;2.50;;;;;;;15.67;74.84;155387.41;5068495;28;20448;-77
2023/03/23 10:37:14;;;;;;;2.03;1.87;;;;;;;15.64;74.43;155378.34;5060163;28;20436;-77
2023/03/23 10:39:47;;;;;;;2.57;2.37;;;;;;;15.67;76.78;155386.16;5044299;28;20476;-79
2023/03/23 10:42:23;;;;;;;3.50;2.40;;;;;;;15.72;76.63;155400.47;5061885;28;20948;-77
2023/03/23 10:44:51;;;;;;;2.40;2.20;;;;;;;15.63;74.31;155377.03;5081909;28;20480;-77
2023/03/23 10:47:18;;;;;;;2.63;2.30;;;;;;;15.60;76.70;155369.22;5083192;28;20440;-77
2023/03/23 10:49:49;;;;;;;2.40;2.20;;;;;;;15.57;81.63;155361.44;5067184;28;21119;-79
2023/03/23 10:52:28;;;;;;;2.83;2.17;;;;;;;15.55;76.52;155356.25;5061143;28;20544;-77
2023/03/23 10:54:58;;;;;;;2.60;2.20;;;;;;;15.54;78.21;155352.38;5063063;28;20444;-78
2023/03/23 10:57:26;;;;;;;4.73;2.40;;;;;;;15.61;78.46;155371.84;5048113;28;20613;-78
2023/03/23 11:00:00;;;;;;;3.03;2.60;;;;;;;15.69;76.88;155392.66;5068122;28;20460;-78
2023/03/23 11:02:29;;;;;;;3.00;2.20;;;;;;;15.74;74.73;155405.66;5050731;28;20450;-78
2023/03/23 11:04:59;;;;;;;2.50;2.20;;;;;;;15.80;79.10;155419.94;5075102;28;20451;-78
2023/03/23 11:07:30;;;;;;;2.70;2.50;;;;;;;15.77;76.59;155413.47;5053487;28;20525;-78
2023/03/23 11:10:06;;;;;;;3.30;2.13;;;;;;;15.81;78.23;155422.53;5057147;28;20467;-78
2023/03/23 11:12:34;;;;;;;2.70;2.40;;;;;;;15.84;76.93;155430.31;5039895;28;20892;-79
2023/03/23 11:15:17;;;;;;;2.87;2.57;;;;;;;15.86;74.64;155434.25;5051617;28;20572;-78
2023/03/23 11:17:44;;;;;;;3.60;2.50;;;;;;;15.91;78.70;155447.25;5054523;28;20481;-77
2023/03/23 11:20:12;;;;;;;3.70;2.30;;;;;;;15.94;76.97;155455.06;5063084;28;20591;-78
2023/03/23 11:22:40;;;;;;;2.50;2.07;;;;;;;15.89;76.50;155443.31;5043743;28;20448;-78
2023/03/23 11:25:07;;;;;;;2.93;2.63;;;;;;;15.89;73.30;155442.00;5066655;28;20451;-79
2023/03/23 11:27:34;;;;;;;2.73;2.17;;;;;;;15.91;75.11;155447.25;5059947;28;20454;-79
2023/03/23 11:30:02;;;;;;;3.20;2.30;;;;;;;15.96;77.51;155460.25;5084012;28;20535;-78
2023/03/23 11:32:31;;;;;;;3.23;2.77;;;;;;;15.94;79.43;155456.31;5081532;28;20566;-78
2023/03/23 11:34:59;;;;;;;2.57;2.10;;;;;;;15.86;78.97;155435.50;5057103;28;20486;-78
2023/03/23 11:37:33;;;;;;;2.90;2.47;;;;;;;15.83;80.72;155427.75;5080718;28;20480;-78
2023/03/23 11:40:06;;;;;;;3.90;2.83;;;;;;;15.86;78.10;155434.25;5062389;28;20548;-78
2023/03/23 11:42:37;;;;;;;2.43;2.23;;;;;;;15.94;81.21;155455.06;5043998;28;20847;-78
2023/03/23 11:45:16;;;;;;;2.93;2.53;;;;;;;15.96;81.08;155460.25;5081342;28;20437;-78
2023/03/23 11:47:51;;;;;;;3.27;2.70;;;;;;;16.02;81.25;155477.13;5064230;28;20452;-78
2023/03/23 11:50:20;;;;;;;3.43;2.40;;;;;;;16.05;79.23;155483.63;5081656;28;21042;-78
2023/03/23 11:52:50;;;;;;;3.33;2.20;;;;;;;16.07;76.63;155488.88;5065897;28;20931;-78